CPQ4 weather

CLOSED Lefroy Airport
Lefroy, Ontario, Canada

Public forecast

Using degrees Celsius for public forecast. Weather courtesy of forecast.io.

METAR (pilot weather report)

Closest report is CFB Borden, 15.7 nm (29.2 km) W. Retrieved 2019/05/25 20:42 UTC (0 seconds ago):

CYBN 252042Z AUTO 16007KT 8SM -RA FEW025 FEW033 21/18 A2979

TAF (pilot weather forecast)

Forecast is more than 12 hours old.

Closest forecast is CFB Borden, 15.7 nm (29.2 km) W. Retrieved 2019/05/24 18:33 UTC (1 day ago):

TAF TAF CYBN 241730Z 2418/2506 36010KT P6SM FEW020 BKN240 TEMPO 2418/2506 BKN020 OVC240 BECMG 2422/2424 VRB03KT RMK FCST BASED ON AUTO OBS. NXT FCST BY 250000Z